sensor_id;sensor_type;location;lat;lon;timestamp;pressure;altitude;pressure_sealevel;temperature;humidity
70053;BME280;57398;52.032;4.376;2023-04-26T00:00:19;102046.84;;;2.60;nan
70053;BME280;57398;52.032;4.376;2023-04-26T00:03:07;102044.28;;;2.50;nan
70053;BME280;57398;52.032;4.376;2023-04-26T00:05:56;102043.44;;;2.40;nan
70053;BME280;57398;52.032;4.376;2023-04-26T00:08:44;102040.47;;;2.35;nan
70053;BME280;57398;52.032;4.376;2023-04-26T00:11:32;102036.16;;;2.36;nan
70053;BME280;57398;52.032;4.376;2023-04-26T00:14:21;102032.00;;;2.35;nan
70053;BME280;57398;52.032;4.376;2023-04-26T00:17:10;102030.22;;;2.25;nan
70053;BME280;57398;52.032;4.376;2023-04-26T00:19:59;102022.13;;;2.20;nan
70053;BME280;57398;52.032;4.376;2023-04-26T00:22:47;102016.16;;;2.10;nan
70053;BME280;57398;52.032;4.376;2023-04-26T00:25:35;102009.16;;;2.12;nan
70053;BME280;57398;52.032;4.376;2023-04-26T00:28:24;102007.69;;;2.09;nan
70053;BME280;57398;52.032;4.376;2023-04-26T00:31:14;102003.91;;;2.04;nan
70053;BME280;57398;52.032;4.376;2023-04-26T00:34:03;101992.81;;;1.94;nan
70053;BME280;57398;52.032;4.376;2023-04-26T00:36:51;101992.69;;;1.95;nan
70053;BME280;57398;52.032;4.376;2023-04-26T00:39:39;101990.53;;;1.91;nan
70053;BME280;57398;52.032;4.376;2023-04-26T00:42:27;101968.94;;;1.83;nan
70053;BME280;57398;52.032;4.376;2023-04-26T00:45:15;101975.69;;;1.84;nan
70053;BME280;57398;52.032;4.376;2023-04-26T00:48:05;101967.84;;;1.76;nan
70053;BME280;57398;52.032;4.376;2023-04-26T00:50:53;101961.50;;;1.71;nan
70053;BME280;57398;52.032;4.376;2023-04-26T00:53:42;101955.81;;;1.67;nan
70053;BME280;57398;52.032;4.376;2023-04-26T00:56:30;101949.25;;;1.74;nan
70053;BME280;57398;52.032;4.376;2023-04-26T00:59:19;101945.84;;;1.64;nan
70053;BME280;57398;52.032;4.376;2023-04-26T01:02:08;101945.06;;;1.73;nan
70053;BME280;57398;52.032;4.376;2023-04-26T01:04:57;101940.31;;;1.68;nan
70053;BME280;57398;52.032;4.376;2023-04-26T01:07:45;101922.13;;;1.62;nan
70053;BME280;57398;52.032;4.376;2023-04-26T01:10:34;101875.50;;;1.58;nan
70053;BME280;57398;52.032;4.376;2023-04-26T01:13:23;101868.06;;;1.55;nan
70053;BME280;57398;52.032;4.376;2023-04-26T01:16:12;101873.56;;;1.51;nan
70053;BME280;57398;52.032;4.376;2023-04-26T01:19:06;101868.84;;;1.46;nan
70053;BME280;57398;52.032;4.376;2023-04-26T01:21:58;101869.66;;;1.46;nan
70053;BME280;57398;52.032;4.376;2023-04-26T01:24:49;101867.09;;;1.46;nan
70053;BME280;57398;52.032;4.376;2023-04-26T01:27:38;101872.38;;;1.45;nan
70053;BME280;57398;52.032;4.376;2023-04-26T01:30:27;101862.94;;;1.45;nan
70053;BME280;57398;52.032;4.376;2023-04-26T01:33:15;101859.00;;;1.51;nan
70053;BME280;57398;52.032;4.376;2023-04-26T01:36:07;101860.94;;;1.59;nan
70053;BME280;57398;52.032;4.376;2023-04-26T01:38:55;101856.59;;;1.69;nan
70053;BME280;57398;52.032;4.376;2023-04-26T01:41:44;101850.41;;;1.72;nan
70053;BME280;57398;52.032;4.376;2023-04-26T01:44:32;101845.16;;;1.73;nan
70053;BME280;57398;52.032;4.376;2023-04-26T01:47:21;101846.13;;;1.72;nan
70053;BME280;57398;52.032;4.376;2023-04-26T01:50:10;101843.94;;;1.67;nan
70053;BME280;57398;52.032;4.376;2023-04-26T01:52:58;101839.50;;;1.60;nan
70053;BME280;57398;52.032;4.376;2023-04-26T01:55:46;101835.84;;;1.53;nan
70053;BME280;57398;52.032;4.376;2023-04-26T01:58:36;101837.44;;;1.44;nan
70053;BME280;57398;52.032;4.376;2023-04-26T02:01:24;101839.72;;;1.37;nan
70053;BME280;57398;52.032;4.376;2023-04-26T02:04:12;101833.28;;;1.33;nan
70053;BME280;57398;52.032;4.376;2023-04-26T02:07:00;101829.25;;;1.31;nan
70053;BME280;57398;52.032;4.376;2023-04-26T02:09:49;101831.53;;;1.34;nan
70053;BME280;57398;52.032;4.376;2023-04-26T02:12:37;101837.97;;;1.28;nan
70053;BME280;57398;52.032;4.376;2023-04-26T02:15:26;101830.44;;;1.27;nan
70053;BME280;57398;52.032;4.376;2023-04-26T02:18:15;101830.84;;;1.22;nan
70053;BME280;57398;52.032;4.376;2023-04-26T02:21:06;101822.47;;;1.20;nan
70053;BME280;57398;52.032;4.376;2023-04-26T02:23:55;101829.88;;;1.23;nan
70053;BME280;57398;52.032;4.376;2023-04-26T02:26:44;101829.09;;;1.22;nan
70053;BME280;57398;52.032;4.376;2023-04-26T02:29:32;101827.88;;;1.27;nan
70053;BME280;57398;52.032;4.376;2023-04-26T02:32:31;101821.56;;;1.31;nan
70053;BME280;57398;52.032;4.376;2023-04-26T02:35:19;101809.84;;;1.38;nan
70053;BME280;57398;52.032;4.376;2023-04-26T02:38:08;101809.28;;;1.44;nan
70053;BME280;57398;52.032;4.376;2023-04-26T02:40:57;101804.44;;;1.51;nan
70053;BME280;57398;52.032;4.376;2023-04-26T02:43:45;101797.03;;;1.57;nan
70053;BME280;57398;52.032;4.376;2023-04-26T02:46:34;101800.25;;;1.69;nan
70053;BME280;57398;52.032;4.376;2023-04-26T02:49:24;101798.38;;;1.71;nan
70053;BME280;57398;52.032;4.376;2023-04-26T02:52:12;101786.78;;;1.77;nan
70053;BME280;57398;52.032;4.376;2023-04-26T02:55:00;101795.16;;;1.79;nan
70053;BME280;57398;52.032;4.376;2023-04-26T02:57:49;101779.09;;;1.77;nan
70053;BME280;57398;52.032;4.376;2023-04-26T03:00:38;101781.66;;;1.86;nan
70053;BME280;57398;52.032;4.376;2023-04-26T03:03:26;101787.31;;;1.80;nan
70053;BME280;57398;52.032;4.376;2023-04-26T03:06:16;101788.00;;;1.73;nan
70053;BME280;57398;52.032;4.376;2023-04-26T03:09:04;101777.50;;;1.66;nan
70053;BME280;57398;52.032;4.376;2023-04-26T03:11:52;101775.47;;;1.60;nan
70053;BME280;57398;52.032;4.376;2023-04-26T03:14:41;101778.03;;;1.50;nan
70053;BME280;57398;52.032;4.376;2023-04-26T03:17:29;101782.88;;;1.43;nan
70053;BME280;57398;52.032;4.376;2023-04-26T03:20:17;101776.69;;;1.36;nan
70053;BME280;57398;52.032;4.376;2023-04-26T03:23:08;101790.56;;;1.34;nan
70053;BME280;57398;52.032;4.376;2023-04-26T03:25:56;101785.84;;;1.19;nan
70053;BME280;57398;52.032;4.376;2023-04-26T03:28:44;101775.47;;;1.21;nan
70053;BME280;57398;52.032;4.376;2023-04-26T03:31:32;101770.34;;;1.21;nan
70053;BME280;57398;52.032;4.376;2023-04-26T03:34:20;101774.09;;;1.17;nan
70053;BME280;57398;52.032;4.376;2023-04-26T03:37:09;101768.84;;;1.09;nan
70053;BME280;57398;52.032;4.376;2023-04-26T03:39:58;101764.13;;;1.04;nan
70053;BME280;57398;52.032;4.376;2023-04-26T03:42:46;101768.97;;;1.07;nan
70053;BME280;57398;52.032;4.376;2023-04-26T03:45:35;101761.19;;;1.09;nan
70053;BME280;57398;52.032;4.376;2023-04-26T03:48:23;101753.78;;;1.06;nan
70053;BME280;57398;52.032;4.376;2023-04-26T03:51:13;101761.19;;;1.09;nan
70053;BME280;57398;52.032;4.376;2023-04-26T03:54:01;101755.25;;;1.08;nan
70053;BME280;57398;52.032;4.376;2023-04-26T03:56:51;101752.53;;;1.10;nan
70053;BME280;57398;52.032;4.376;2023-04-26T03:59:39;101753.66;;;1.27;nan
70053;BME280;57398;52.032;4.376;2023-04-26T04:02:27;101748.41;;;1.48;nan
70053;BME280;57398;52.032;4.376;2023-04-26T04:05:16;101743.38;;;1.56;nan
70053;BME280;57398;52.032;4.376;2023-04-26T04:08:04;101745.81;;;1.57;nan
70053;BME280;57398;52.032;4.376;2023-04-26T04:10:52;101746.34;;;1.51;nan
70053;BME280;57398;52.032;4.376;2023-04-26T04:13:43;101750.41;;;1.44;nan
70053;BME280;57398;52.032;4.376;2023-04-26T04:16:31;101746.78;;;1.37;nan
70053;BME280;57398;52.032;4.376;2023-04-26T04:19:20;101747.19;;;1.32;nan
70053;BME280;57398;52.032;4.376;2023-04-26T04:22:08;101748.78;;;1.23;nan
70053;BME280;57398;52.032;4.376;2023-04-26T04:24:56;101744.06;;;1.19;nan
70053;BME280;57398;52.032;4.376;2023-04-26T04:27:45;101747.59;;;1.08;nan
70053;BME280;57398;52.032;4.376;2023-04-26T04:30:35;101747.03;;;1.04;nan
70053;BME280;57398;52.032;4.376;2023-04-26T04:33:23;101747.31;;;1.01;nan
70053;BME280;57398;52.032;4.376;2023-04-26T04:36:14;101746.75;;;0.98;nan
70053;BME280;57398;52.032;4.376;2023-04-26T04:39:03;101747.03;;;0.95;nan
70053;BME280;57398;52.032;4.376;2023-04-26T04:41:58;101742.59;;;0.97;nan
70053;BME280;57398;52.032;4.376;2023-04-26T04:44:46;101756.19;;;0.97;nan
70053;BME280;57398;52.032;4.376;2023-04-26T04:47:37;101752.94;;;1.05;nan
70053;BME280;57398;52.032;4.376;2023-04-26T04:50:25;101754.69;;;1.04;nan
70053;BME280;57398;52.032;4.376;2023-04-26T04:53:13;101749.97;;;1.00;nan
70053;BME280;57398;52.032;4.376;2023-04-26T04:56:03;101754.44;;;1.08;nan
70053;BME280;57398;52.032;4.376;2023-04-26T04:58:51;101751.75;;;1.19;nan
70053;BME280;57398;52.032;4.376;2023-04-26T05:01:40;101754.47;;;1.17;nan
70053;BME280;57398;52.032;4.376;2023-04-26T05:04:29;101755.41;;;1.26;nan
70053;BME280;57398;52.032;4.376;2023-04-26T05:07:20;101749.06;;;1.30;nan
70053;BME280;57398;52.032;4.376;2023-04-26T05:10:11;101742.03;;;1.42;nan
70053;BME280;57398;52.032;4.376;2023-04-26T05:12:59;101741.50;;;1.58;nan
70053;BME280;57398;52.032;4.376;2023-04-26T05:15:47;101741.34;;;1.69;nan
70053;BME280;57398;52.032;4.376;2023-04-26T05:18:35;101747.28;;;1.79;nan
70053;BME280;57398;52.032;4.376;2023-04-26T05:21:25;101744.16;;;1.95;nan
70053;BME280;57398;52.032;4.376;2023-04-26T05:24:13;101744.91;;;2.05;nan
70053;BME280;57398;52.032;4.376;2023-04-26T05:27:02;101751.88;;;2.23;nan
70053;BME280;57398;52.032;4.376;2023-04-26T05:29:51;101743.72;;;2.37;nan
70053;BME280;57398;52.032;4.376;2023-04-26T05:32:39;101744.81;;;2.62;nan
70053;BME280;57398;52.032;4.376;2023-04-26T05:35:27;101750.66;;;2.82;nan
70053;BME280;57398;52.032;4.376;2023-04-26T05:38:17;101746.63;;;2.98;nan
70053;BME280;57398;52.032;4.376;2023-04-26T05:41:05;101746.56;;;3.07;nan
70053;BME280;57398;52.032;4.376;2023-04-26T05:43:53;101751.53;;;3.27;nan
70053;BME280;57398;52.032;4.376;2023-04-26T05:46:41;101748.31;;;3.43;nan
70053;BME280;57398;52.032;4.376;2023-04-26T05:49:29;101753.34;;;3.52;nan
70053;BME280;57398;52.032;4.376;2023-04-26T05:52:17;101753.13;;;3.64;nan
70053;BME280;57398;52.032;4.376;2023-04-26T05:55:08;101745.38;;;3.82;nan
70053;BME280;57398;52.032;4.376;2023-04-26T05:57:56;101747.09;;;3.99;nan
70053;BME280;57398;52.032;4.376;2023-04-26T06:00:45;101750.41;;;4.17;nan
70053;BME280;57398;52.032;4.376;2023-04-26T06:03:33;101743.72;;;4.33;nan
70053;BME280;57398;52.032;4.376;2023-04-26T06:06:21;101743.31;;;4.54;nan
70053;BME280;57398;52.032;4.376;2023-04-26T06:09:09;101745.44;;;4.67;nan
70053;BME280;57398;52.032;4.376;2023-04-26T06:11:59;101749.16;;;4.72;nan
70053;BME280;57398;52.032;4.376;2023-04-26T06:14:47;101759.00;;;4.77;nan
70053;BME280;57398;52.032;4.376;2023-04-26T06:17:36;101783.16;;;4.92;nan
70053;BME280;57398;52.032;4.376;2023-04-26T06:20:24;101801.53;;;5.06;nan
70053;BME280;57398;52.032;4.376;2023-04-26T06:23:13;101819.75;;;5.12;nan
70053;BME280;57398;52.032;4.376;2023-04-26T06:26:01;101846.34;;;5.37;nan
70053;BME280;57398;52.032;4.376;2023-04-26T06:28:51;101877.59;;;5.42;nan
70053;BME280;57398;52.032;4.376;2023-04-26T06:31:39;101913.22;;;5.55;nan
70053;BME280;57398;52.032;4.376;2023-04-26T06:34:27;101963.03;;;5.64;nan
70053;BME280;57398;52.032;4.376;2023-04-26T06:37:16;102019.44;;;5.75;nan
70053;BME280;57398;52.032;4.376;2023-04-26T06:40:08;102072.47;;;5.86;nan
70053;BME280;57398;52.032;4.376;2023-04-26T06:42:56;102102.16;;;5.82;nan
70053;BME280;57398;52.032;4.376;2023-04-26T06:45:46;102124.16;;;6.02;nan
70053;BME280;57398;52.032;4.376;2023-04-26T06:48:34;102118.22;;;6.10;nan
70053;BME280;57398;52.032;4.376;2023-04-26T06:51:23;102114.16;;;5.99;nan
70053;BME280;57398;52.032;4.376;2023-04-26T06:54:11;102119.63;;;5.96;nan
70053;BME280;57398;52.032;4.376;2023-04-26T06:56:59;102109.72;;;5.83;nan
70053;BME280;57398;52.032;4.376;2023-04-26T06:59:48;102096.19;;;5.90;nan
70053;BME280;57398;52.032;4.376;2023-04-26T07:02:38;102080.28;;;5.94;nan
70053;BME280;57398;52.032;4.376;2023-04-26T07:05:27;102080.66;;;6.07;nan
70053;BME280;57398;52.032;4.376;2023-04-26T07:08:15;102087.75;;;6.05;nan
70053;BME280;57398;52.032;4.376;2023-04-26T07:11:08;102081.81;;;5.79;nan
70053;BME280;57398;52.032;4.376;2023-04-26T07:13:56;102085.97;;;5.72;nan
70053;BME280;57398;52.032;4.376;2023-04-26T07:16:45;102094.97;;;5.67;nan
70053;BME280;57398;52.032;4.376;2023-04-26T07:19:34;102090.94;;;5.65;nan
70053;BME280;57398;52.032;4.376;2023-04-26T07:22:23;102091.72;;;5.57;nan
70053;BME280;57398;52.032;4.376;2023-04-26T07:25:11;102099.75;;;5.54;nan
70053;BME280;57398;52.032;4.376;2023-04-26T07:27:59;102096.63;;;5.42;nan
70053;BME280;57398;52.032;4.376;2023-04-26T07:30:47;102103.16;;;5.55;nan
70053;BME280;57398;52.032;4.376;2023-04-26T07:33:35;102099.84;;;5.71;nan
70053;BME280;57398;52.032;4.376;2023-04-26T07:36:25;102106.88;;;5.95;nan
70053;BME280;57398;52.032;4.376;2023-04-26T07:39:14;102109.97;;;6.06;nan
70053;BME280;57398;52.032;4.376;2023-04-26T07:42:02;102104.19;;;6.13;nan
70053;BME280;57398;52.032;4.376;2023-04-26T07:44:50;102101.44;;;6.06;nan
70053;BME280;57398;52.032;4.376;2023-04-26T07:47:39;102093.38;;;6.09;nan
70053;BME280;57398;52.032;4.376;2023-04-26T07:50:27;102091.63;;;6.18;nan
70053;BME280;57398;52.032;4.376;2023-04-26T07:53:16;102086.28;;;6.11;nan
70053;BME280;57398;52.032;4.376;2023-04-26T07:56:06;102092.94;;;6.22;nan
70053;BME280;57398;52.032;4.376;2023-04-26T07:58:54;102083.91;;;6.26;nan
70053;BME280;57398;52.032;4.376;2023-04-26T08:01:43;102097.78;;;6.25;nan
70053;BME280;57398;52.032;4.376;2023-04-26T08:04:32;102075.84;;;6.21;nan
70053;BME280;57398;52.032;4.376;2023-04-26T08:07:20;102063.25;;;6.18;nan
70053;BME280;57398;52.032;4.376;2023-04-26T08:10:10;102060.38;;;6.21;nan
70053;BME280;57398;52.032;4.376;2023-04-26T08:12:58;102062.78;;;6.22;nan
70053;BME280;57398;52.032;4.376;2023-04-26T08:15:49;102061.50;;;6.26;nan
70053;BME280;57398;52.032;4.376;2023-04-26T08:18:37;102045.69;;;6.29;nan
70053;BME280;57398;52.032;4.376;2023-04-26T08:21:25;102027.81;;;6.44;nan
70053;BME280;57398;52.032;4.376;2023-04-26T08:24:13;102019.41;;;6.42;nan
70053;BME280;57398;52.032;4.376;2023-04-26T08:27:03;102010.69;;;6.52;nan
70053;BME280;57398;52.032;4.376;2023-04-26T08:29:51;102012.00;;;6.56;nan
70053;BME280;57398;52.032;4.376;2023-04-26T08:32:39;101978.75;;;6.44;nan
70053;BME280;57398;52.032;4.376;2023-04-26T08:35:27;101972.47;;;6.39;nan
70053;BME280;57398;52.032;4.376;2023-04-26T08:38:15;101963.75;;;6.48;nan
70053;BME280;57398;52.032;4.376;2023-04-26T08:41:04;101956.97;;;6.39;nan
70053;BME280;57398;52.032;4.376;2023-04-26T08:43:54;101952.13;;;6.27;nan
70053;BME280;57398;52.032;4.376;2023-04-26T08:46:52;101964.25;;;6.19;nan
70053;BME280;57398;52.032;4.376;2023-04-26T08:49:44;101959.09;;;6.19;nan
70053;BME280;57398;52.032;4.376;2023-04-26T08:52:34;101970.69;;;6.15;nan
70053;BME280;57398;52.032;4.376;2023-04-26T08:55:22;101968.75;;;6.00;nan
70053;BME280;57398;52.032;4.376;2023-04-26T08:58:11;101993.19;;;5.88;nan
70053;BME280;57398;52.032;4.376;2023-04-26T09:01:00;101987.06;;;5.81;nan
70053;BME280;57398;52.032;4.376;2023-04-26T09:03:49;101996.25;;;5.83;nan
70053;BME280;57398;52.032;4.376;2023-04-26T09:06:39;102005.59;;;5.68;nan
70053;BME280;57398;52.032;4.376;2023-04-26T09:09:30;102025.66;;;5.99;nan
70053;BME280;57398;52.032;4.376;2023-04-26T09:12:21;102051.91;;;6.02;nan
70053;BME280;57398;52.032;4.376;2023-04-26T09:15:10;102056.16;;;6.12;nan
70053;BME280;57398;52.032;4.376;2023-04-26T09:18:18;102045.31;;;6.00;nan
70053;BME280;57398;52.032;4.376;2023-04-26T09:21:07;102039.53;;;6.06;nan
70053;BME280;57398;52.032;4.376;2023-04-26T09:23:56;102031.66;;;6.32;nan
70053;BME280;57398;52.032;4.376;2023-04-26T09:26:44;102017.63;;;6.43;nan
70053;BME280;57398;52.032;4.376;2023-04-26T09:29:33;102008.25;;;6.83;nan
70053;BME280;57398;52.032;4.376;2023-04-26T09:32:21;102002.53;;;7.04;nan
70053;BME280;57398;52.032;4.376;2023-04-26T09:35:20;101982.19;;;7.09;nan
70053;BME280;57398;52.032;4.376;2023-04-26T09:38:10;101967.22;;;7.36;nan
70053;BME280;57398;52.032;4.376;2023-04-26T09:40:59;101955.94;;;7.83;nan
70053;BME280;57398;52.032;4.376;2023-04-26T09:43:51;101953.28;;;8.37;nan
70053;BME280;57398;52.032;4.376;2023-04-26T09:46:39;101933.84;;;8.86;nan
70053;BME280;57398;52.032;4.376;2023-04-26T09:49:30;101898.13;;;8.96;nan
70053;BME280;57398;52.032;4.376;2023-04-26T09:52:20;101536.41;;;8.52;nan
70053;BME280;57398;52.032;4.376;2023-04-26T09:55:08;101503.44;;;8.67;nan
70053;BME280;57398;52.032;4.376;2023-04-26T09:58:07;101471.34;;;8.62;nan
70053;BME280;57398;52.032;4.376;2023-04-26T10:00:57;101474.03;;;8.81;nan
70053;BME280;57398;52.032;4.376;2023-04-26T10:03:46;101498.00;;;8.55;nan
70053;BME280;57398;52.032;4.376;2023-04-26T10:06:34;101490.25;;;8.90;nan
70053;BME280;57398;52.032;4.376;2023-04-26T10:09:24;101487.44;;;9.27;nan
70053;BME280;57398;52.032;4.376;2023-04-26T10:12:16;101492.75;;;9.73;nan
70053;BME280;57398;52.032;4.376;2023-04-26T10:15:05;101508.44;;;10.40;nan
70053;BME280;57398;52.032;4.376;2023-04-26T10:17:55;101672.69;;;9.94;nan
70053;BME280;57398;52.032;4.376;2023-04-26T10:20:45;101728.47;;;9.41;nan
70053;BME280;57398;52.032;4.376;2023-04-26T10:23:37;101762.38;;;10.03;nan
70053;BME280;57398;52.032;4.376;2023-04-26T10:26:50;101767.81;;;10.08;nan
70053;BME280;57398;52.032;4.376;2023-04-26T10:30:05;101808.03;;;9.41;nan
70053;BME280;57398;52.032;4.376;2023-04-26T10:33:15;101826.25;;;9.26;nan
70053;BME280;57398;52.032;4.376;2023-04-26T10:36:09;101843.63;;;8.74;nan
70053;BME280;57398;52.032;4.376;2023-04-26T10:39:17;101864.91;;;8.70;nan
70053;BME280;57398;52.032;4.376;2023-04-26T10:42:26;101870.50;;;8.29;nan
70053;BME280;57398;52.032;4.376;2023-04-26T10:45:26;101839.53;;;8.35;nan
70053;BME280;57398;52.032;4.376;2023-04-26T10:48:16;101825.16;;;8.18;nan
70053;BME280;57398;52.032;4.376;2023-04-26T10:51:08;101838.53;;;8.22;nan
70053;BME280;57398;52.032;4.376;2023-04-26T10:53:58;101853.88;;;8.38;nan
70053;BME280;57398;52.032;4.376;2023-04-26T10:56:50;101833.19;;;8.38;nan
70053;BME280;57398;52.032;4.376;2023-04-26T11:00:16;101754.47;;;9.27;nan
70053;BME280;57398;52.032;4.376;2023-04-26T11:03:09;101839.94;;;8.98;nan
70053;BME280;57398;52.032;4.376;2023-04-26T11:05:59;101861.06;;;9.17;nan
70053;BME280;57398;52.032;4.376;2023-04-26T11:08:47;101916.19;;;8.89;nan
70053;BME280;57398;52.032;4.376;2023-04-26T11:11:49;101864.97;;;8.76;nan
70053;BME280;57398;52.032;4.376;2023-04-26T11:14:41;101822.19;;;8.66;nan
70053;BME280;57398;52.032;4.376;2023-04-26T11:17:35;101836.75;;;8.37;nan
70053;BME280;57398;52.032;4.376;2023-04-26T11:20:27;101782.63;;;9.08;nan
70053;BME280;57398;52.032;4.376;2023-04-26T11:23:17;101752.59;;;10.05;nan
70053;BME280;57398;52.032;4.376;2023-04-26T11:26:06;101837.41;;;9.48;nan
70053;BME280;57398;52.032;4.376;2023-04-26T11:28:55;101865.41;;;9.31;nan
70053;BME280;57398;52.032;4.376;2023-04-26T11:31:50;101854.72;;;9.62;nan
70053;BME280;57398;52.032;4.376;2023-04-26T11:34:38;101838.94;;;9.64;nan
70053;BME280;57398;52.032;4.376;2023-04-26T11:37:27;101834.78;;;9.41;nan
70053;BME280;57398;52.032;4.376;2023-04-26T11:40:16;101822.56;;;9.35;nan
70053;BME280;57398;52.032;4.376;2023-04-26T11:43:04;101840.41;;;9.23;nan
70053;BME280;57398;52.032;4.376;2023-04-26T11:45:57;101839.75;;;9.00;nan
70053;BME280;57398;52.032;4.376;2023-04-26T11:48:47;101838.53;;;8.96;nan
70053;BME280;57398;52.032;4.376;2023-04-26T11:51:35;101849.78;;;9.25;nan
70053;BME280;57398;52.032;4.376;2023-04-26T11:54:27;101864.53;;;9.24;nan
70053;BME280;57398;52.032;4.376;2023-04-26T11:57:17;101826.63;;;9.94;nan
70053;BME280;57398;52.032;4.376;2023-04-26T12:00:07;101871.66;;;9.58;nan
70053;BME280;57398;52.032;4.376;2023-04-26T12:03:04;101895.53;;;9.54;nan
70053;BME280;57398;52.032;4.376;2023-04-26T12:05:54;101872.88;;;9.62;nan
70053;BME280;57398;52.032;4.376;2023-04-26T12:08:48;101885.66;;;9.21;nan
70053;BME280;57398;52.032;4.376;2023-04-26T12:11:37;101901.16;;;9.57;nan
70053;BME280;57398;52.032;4.376;2023-04-26T12:14:30;101892.97;;;10.03;nan
70053;BME280;57398;52.032;4.376;2023-04-26T12:17:21;101903.88;;;10.90;nan
70053;BME280;57398;52.032;4.376;2023-04-26T12:20:10;101968.16;;;9.54;nan
70053;BME280;57398;52.032;4.376;2023-04-26T12:23:02;101953.84;;;9.07;nan
70053;BME280;57398;52.032;4.376;2023-04-26T12:25:52;101926.00;;;8.79;nan
70053;BME280;57398;52.032;4.376;2023-04-26T12:28:42;101914.81;;;9.66;nan
70053;BME280;57398;52.032;4.376;2023-04-26T12:31:30;101898.53;;;10.57;nan
70053;BME280;57398;52.032;4.376;2023-04-26T12:34:18;101988.53;;;10.15;nan
70053;BME280;57398;52.032;4.376;2023-04-26T12:37:06;102116.97;;;10.55;nan
70053;BME280;57398;52.032;4.376;2023-04-26T12:39:56;102439.06;;;10.63;nan
70053;BME280;57398;52.032;4.376;2023-04-26T12:42:45;102456.38;;;10.56;nan
70053;BME280;57398;52.032;4.376;2023-04-26T12:45:33;102479.28;;;10.38;nan
70053;BME280;57398;52.032;4.376;2023-04-26T12:48:21;102474.91;;;10.53;nan
70053;BME280;57398;52.032;4.376;2023-04-26T12:51:09;102487.19;;;10.59;nan
70053;BME280;57398;52.032;4.376;2023-04-26T12:53:58;102474.03;;;10.61;nan
70053;BME280;57398;52.032;4.376;2023-04-26T12:56:47;102482.69;;;10.38;nan
70053;BME280;57398;52.032;4.376;2023-04-26T12:59:35;102473.94;;;10.54;nan
70053;BME280;57398;52.032;4.376;2023-04-26T13:02:23;102449.81;;;11.05;nan
70053;BME280;57398;52.032;4.376;2023-04-26T13:05:12;102439.47;;;10.37;nan
70053;BME280;57398;52.032;4.376;2023-04-26T13:08:00;102459.78;;;9.96;nan
70053;BME280;57398;52.032;4.376;2023-04-26T13:10:48;102474.81;;;9.54;nan
70053;BME280;57398;52.032;4.376;2023-04-26T13:13:38;102478.75;;;9.73;nan
70053;BME280;57398;52.032;4.376;2023-04-26T13:16:31;102486.78;;;10.10;nan
70053;BME280;57398;52.032;4.376;2023-04-26T13:19:19;102484.75;;;9.74;nan
70053;BME280;57398;52.032;4.376;2023-04-26T13:22:09;102469.19;;;9.42;nan
70053;BME280;57398;52.032;4.376;2023-04-26T13:24:58;102464.25;;;10.25;nan
70053;BME280;57398;52.032;4.376;2023-04-26T13:27:46;102461.63;;;10.33;nan
70053;BME280;57398;52.032;4.376;2023-04-26T13:30:35;102486.41;;;9.67;nan
70053;BME280;57398;52.032;4.376;2023-04-26T13:33:24;102481.78;;;9.85;nan
70053;BME280;57398;52.032;4.376;2023-04-26T13:36:12;102499.28;;;9.60;nan
70053;BME280;57398;52.032;4.376;2023-04-26T13:39:01;102486.31;;;9.83;nan
70053;BME280;57398;52.032;4.376;2023-04-26T13:41:51;102485.72;;;10.19;nan
70053;BME280;57398;52.032;4.376;2023-04-26T13:44:39;102495.56;;;9.85;nan
70053;BME280;57398;52.032;4.376;2023-04-26T13:47:29;102493.81;;;10.01;nan
70053;BME280;57398;52.032;4.376;2023-04-26T13:50:17;102500.06;;;10.15;nan
70053;BME280;57398;52.032;4.376;2023-04-26T13:53:05;102505.03;;;9.70;nan
70053;BME280;57398;52.032;4.376;2023-04-26T13:55:54;102502.22;;;9.80;nan
70053;BME280;57398;52.032;4.376;2023-04-26T13:58:42;102519.81;;;9.70;nan
70053;BME280;57398;52.032;4.376;2023-04-26T14:01:32;102525.84;;;9.22;nan
70053;BME280;57398;52.032;4.376;2023-04-26T14:04:23;102532.94;;;9.37;nan
70053;BME280;57398;52.032;4.376;2023-04-26T14:07:11;102523.88;;;9.95;nan
70053;BME280;57398;52.032;4.376;2023-04-26T14:10:00;102535.16;;;9.79;nan
70053;BME280;57398;52.032;4.376;2023-04-26T14:12:48;102520.84;;;9.60;nan
70053;BME280;57398;52.032;4.376;2023-04-26T14:15:36;102520.13;;;10.21;nan
70053;BME280;57398;52.032;4.376;2023-04-26T14:18:24;102507.25;;;10.27;nan
70053;BME280;57398;52.032;4.376;2023-04-26T14:21:14;102497.72;;;9.42;nan
70053;BME280;57398;52.032;4.376;2023-04-26T14:24:02;102490.13;;;9.95;nan
70053;BME280;57398;52.032;4.376;2023-04-26T14:26:53;102478.75;;;9.96;nan
70053;BME280;57398;52.032;4.376;2023-04-26T14:29:41;102485.09;;;10.17;nan
70053;BME280;57398;52.032;4.376;2023-04-26T14:32:29;102478.94;;;9.95;nan
70053;BME280;57398;52.032;4.376;2023-04-26T14:35:17;102467.91;;;9.93;nan
70053;BME280;57398;52.032;4.376;2023-04-26T14:38:07;102378.09;;;10.06;nan
70053;BME280;57398;52.032;4.376;2023-04-26T14:40:55;102415.72;;;10.25;nan
70053;BME280;57398;52.032;4.376;2023-04-26T14:43:45;102420.06;;;10.33;nan
70053;BME280;57398;52.032;4.376;2023-04-26T14:46:34;102429.06;;;10.22;nan
70053;BME280;57398;52.032;4.376;2023-04-26T14:49:23;102438.91;;;9.89;nan
70053;BME280;57398;52.032;4.376;2023-04-26T14:52:11;102432.03;;;9.73;nan
70053;BME280;57398;52.032;4.376;2023-04-26T14:55:00;102464.53;;;9.92;nan
70053;BME280;57398;52.032;4.376;2023-04-26T14:57:49;102463.69;;;9.69;nan
70053;BME280;57398;52.032;4.376;2023-04-26T15:00:38;102458.09;;;9.57;nan
70053;BME280;57398;52.032;4.376;2023-04-26T15:03:26;102459.91;;;9.79;nan
70053;BME280;57398;52.032;4.376;2023-04-26T15:06:14;102475.91;;;9.37;nan
70053;BME280;57398;52.032;4.376;2023-04-26T15:09:03;102465.31;;;9.70;nan
70053;BME280;57398;52.032;4.376;2023-04-26T15:11:55;102525.28;;;10.06;nan
70053;BME280;57398;52.032;4.376;2023-04-26T15:14:43;102542.41;;;9.61;nan
70053;BME280;57398;52.032;4.376;2023-04-26T15:17:32;102540.91;;;9.27;nan
70053;BME280;57398;52.032;4.376;2023-04-26T15:20:20;102543.75;;;9.01;nan